sensor_id;sensor_type;location;lat;lon;timestamp;pressure;altitude;pressure_sealevel;temperature;humidity
58739;BME280;44512;53.046;18.604;2023-06-22T00:05:33;101858.74;;;24.30;58.89
58739;BME280;44512;53.046;18.604;2023-06-22T00:16:01;101864.43;;;24.18;58.84
58739;BME280;44512;53.046;18.604;2023-06-22T00:26:29;101887.89;;;24.11;59.01
58739;BME280;44512;53.046;18.604;2023-06-22T00:36:58;101872.31;;;24.00;59.23
58739;BME280;44512;53.046;18.604;2023-06-22T00:47:27;101886.59;;;23.91;59.44
58739;BME280;44512;53.046;18.604;2023-06-22T00:57:54;101874.93;;;23.84;59.30
58739;BME280;44512;53.046;18.604;2023-06-22T01:18:54;101874.77;;;23.69;59.15
58739;BME280;44512;53.046;18.604;2023-06-22T01:29:21;101859.45;;;23.61;58.94
58739;BME280;44512;53.046;18.604;2023-06-22T01:39:48;101865.18;;;23.55;58.68
58739;BME280;44512;53.046;18.604;2023-06-22T01:50:16;101881.15;;;23.48;58.33
58739;BME280;44512;53.046;18.604;2023-06-22T02:00:49;101874.91;;;23.35;58.15
58739;BME280;44512;53.046;18.604;2023-06-22T02:11:15;101871.39;;;23.18;58.16
58739;BME280;44512;53.046;18.604;2023-06-22T02:21:41;101874.02;;;23.08;58.24
58739;BME280;44512;53.046;18.604;2023-06-22T02:32:10;101894.56;;;22.95;58.11
58739;BME280;44512;53.046;18.604;2023-06-22T02:42:39;101900.14;;;22.83;58.00
58739;BME280;44512;53.046;18.604;2023-06-22T02:53:06;101917.65;;;22.72;57.73
58739;BME280;44512;53.046;18.604;2023-06-22T03:03:35;101919.07;;;22.58;57.72
58739;BME280;44512;53.046;18.604;2023-06-22T03:14:03;101928.63;;;22.50;57.62
58739;BME280;44512;53.046;18.604;2023-06-22T03:24:31;101930.95;;;22.42;57.63
58739;BME280;44512;53.046;18.604;2023-06-22T03:35:00;101947.59;;;22.30;57.90
58739;BME280;44512;53.046;18.604;2023-06-22T03:45:28;101960.94;;;22.21;58.05
58739;BME280;44512;53.046;18.604;2023-06-22T03:55:57;101956.42;;;22.15;58.10
58739;BME280;44512;53.046;18.604;2023-06-22T04:06:25;101972.13;;;22.15;57.96
58739;BME280;44512;53.046;18.604;2023-06-22T04:16:53;101962.89;;;22.09;57.92
58739;BME280;44512;53.046;18.604;2023-06-22T04:27:21;101966.39;;;22.04;58.07
58739;BME280;44512;53.046;18.604;2023-06-22T04:37:50;101979.92;;;22.06;58.23
58739;BME280;44512;53.046;18.604;2023-06-22T04:48:18;101990.47;;;22.09;58.24
58739;BME280;44512;53.046;18.604;2023-06-22T04:58:46;101986.17;;;22.13;58.11
58739;BME280;44512;53.046;18.604;2023-06-22T05:09:15;101974.62;;;22.16;58.17
58739;BME280;44512;53.046;18.604;2023-06-22T05:19:43;101979.05;;;22.17;58.33
58739;BME280;44512;53.046;18.604;2023-06-22T05:30:12;101985.17;;;22.19;58.45
58739;BME280;44512;53.046;18.604;2023-06-22T05:40:40;102011.40;;;22.22;58.72
58739;BME280;44512;53.046;18.604;2023-06-22T05:51:08;102018.94;;;22.26;58.66
58739;BME280;44512;53.046;18.604;2023-06-22T06:01:37;102027.56;;;22.30;58.77
58739;BME280;44512;53.046;18.604;2023-06-22T06:12:06;102024.07;;;22.34;58.93
58739;BME280;44512;53.046;18.604;2023-06-22T06:22:33;102013.13;;;22.40;58.87
58739;BME280;44512;53.046;18.604;2023-06-22T06:33:02;102022.67;;;22.49;58.36
58739;BME280;44512;53.046;18.604;2023-06-22T06:43:30;102017.26;;;22.54;57.95
58739;BME280;44512;53.046;18.604;2023-06-22T06:53:58;102033.91;;;22.59;57.48
58739;BME280;44512;53.046;18.604;2023-06-22T07:04:27;102035.05;;;22.63;57.32
58739;BME280;44512;53.046;18.604;2023-06-22T07:25:23;102024.27;;;22.78;56.75
58739;BME280;44512;53.046;18.604;2023-06-22T07:35:52;102027.13;;;22.83;55.58
58739;BME280;44512;53.046;18.604;2023-06-22T07:46:20;102037.67;;;22.86;53.58
58739;BME280;44512;53.046;18.604;2023-06-22T07:56:48;102037.27;;;22.95;52.37
58739;BME280;44512;53.046;18.604;2023-06-22T08:07:17;102047.33;;;23.01;51.49
58739;BME280;44512;53.046;18.604;2023-06-22T08:17:45;102044.96;;;23.09;51.36
58739;BME280;44512;53.046;18.604;2023-06-22T08:28:13;102030.73;;;23.18;51.70
58739;BME280;44512;53.046;18.604;2023-06-22T08:38:42;102057.68;;;23.27;51.07
58739;BME280;44512;53.046;18.604;2023-06-22T08:49:10;102045.95;;;23.37;50.94
58739;BME280;44512;53.046;18.604;2023-06-22T08:59:38;102050.79;;;23.47;50.85
58739;BME280;44512;53.046;18.604;2023-06-22T09:10:07;102050.90;;;23.57;50.27
58739;BME280;44512;53.046;18.604;2023-06-22T09:20:35;102048.84;;;23.64;49.21
58739;BME280;44512;53.046;18.604;2023-06-22T09:31:03;102034.81;;;23.71;48.38
58739;BME280;44512;53.046;18.604;2023-06-22T09:41:32;102030.79;;;23.78;48.33
58739;BME280;44512;53.046;18.604;2023-06-22T09:52:00;102013.16;;;23.84;47.49
58739;BME280;44512;53.046;18.604;2023-06-22T10:02:28;102017.65;;;23.90;46.20
58739;BME280;44512;53.046;18.604;2023-06-22T10:13:02;102027.41;;;23.98;45.62
58739;BME280;44512;53.046;18.604;2023-06-22T10:23:25;102025.30;;;24.05;44.81
58739;BME280;44512;53.046;18.604;2023-06-22T10:33:54;102015.69;;;24.13;43.73
58739;BME280;44512;53.046;18.604;2023-06-22T10:44:22;102017.17;;;24.21;43.12
58739;BME280;44512;53.046;18.604;2023-06-22T10:54:50;102010.91;;;24.30;43.91
58739;BME280;44512;53.046;18.604;2023-06-22T11:05:19;102017.65;;;24.39;42.98
58739;BME280;44512;53.046;18.604;2023-06-22T11:15:47;101993.38;;;24.47;42.97
58739;BME280;44512;53.046;18.604;2023-06-22T11:26:15;101992.45;;;24.68;42.64
58739;BME280;44512;53.046;18.604;2023-06-22T11:36:43;102022.67;;;25.07;41.90
58739;BME280;44512;53.046;18.604;2023-06-22T11:47:12;102003.30;;;25.54;40.33
58739;BME280;44512;53.046;18.604;2023-06-22T12:08:09;101990.00;;;26.44;38.54
58739;BME280;44512;53.046;18.604;2023-06-22T12:18:37;101978.35;;;26.78;36.65
58739;BME280;44512;53.046;18.604;2023-06-22T12:29:05;101989.38;;;27.24;36.70
58739;BME280;44512;53.046;18.604;2023-06-22T12:39:34;101965.91;;;27.71;36.29
58739;BME280;44512;53.046;18.604;2023-06-22T12:50:02;101975.16;;;28.06;35.45
58739;BME280;44512;53.046;18.604;2023-06-22T13:00:30;101943.73;;;28.44;34.73
58739;BME280;44512;53.046;18.604;2023-06-22T13:10:58;101962.91;;;28.80;34.35
58739;BME280;44512;53.046;18.604;2023-06-22T13:21:27;101945.40;;;29.03;34.13
58739;BME280;44512;53.046;18.604;2023-06-22T13:31:55;101932.02;;;29.05;33.67
58739;BME280;44512;53.046;18.604;2023-06-22T13:42:28;101929.86;;;28.97;33.34
58739;BME280;44512;53.046;18.604;2023-06-22T13:52:56;101911.81;;;28.90;34.05
58739;BME280;44512;53.046;18.604;2023-06-22T14:03:24;101902.90;;;28.88;33.96
58739;BME280;44512;53.046;18.604;2023-06-22T14:13:52;101899.54;;;28.91;33.19
58739;BME280;44512;53.046;18.604;2023-06-22T14:24:21;101900.59;;;29.00;33.08
58739;BME280;44512;53.046;18.604;2023-06-22T14:34:49;101887.87;;;29.13;32.76
58739;BME280;44512;53.046;18.604;2023-06-22T14:50:37;101893.52;;;29.50;31.88
58739;BME280;44512;53.046;18.604;2023-06-22T15:01:06;101884.56;;;30.10;31.28
58739;BME280;44512;53.046;18.604;2023-06-22T15:11:35;101876.08;;;30.94;30.00
58739;BME280;44512;53.046;18.604;2023-06-22T15:22:07;101872.86;;;31.78;29.04
58739;BME280;44512;53.046;18.604;2023-06-22T15:32:32;101876.49;;;32.69;27.89
58739;BME280;44512;53.046;18.604;2023-06-22T15:43:00;101871.33;;;33.41;26.62
58739;BME280;44512;53.046;18.604;2023-06-22T15:53:32;101876.34;;;33.97;25.62
58739;BME280;44512;53.046;18.604;2023-06-22T16:04:04;101867.32;;;34.46;24.86
58739;BME280;44512;53.046;18.604;2023-06-22T16:14:33;101858.93;;;34.85;24.32
58739;BME280;44512;53.046;18.604;2023-06-22T16:25:02;101853.41;;;35.27;23.53
58739;BME280;44512;53.046;18.604;2023-06-22T16:35:32;101862.12;;;35.63;23.01
58739;BME280;44512;53.046;18.604;2023-06-22T16:46:01;101837.31;;;35.78;22.82
58739;BME280;44512;53.046;18.604;2023-06-22T16:56:32;101835.04;;;35.50;22.46
58739;BME280;44512;53.046;18.604;2023-06-22T17:07:09;101816.45;;;35.07;22.76
58739;BME280;44512;53.046;18.604;2023-06-22T17:17:33;101804.00;;;34.79;22.88
58739;BME280;44512;53.046;18.604;2023-06-22T17:28:02;101781.99;;;34.51;22.84
58739;BME280;44512;53.046;18.604;2023-06-22T17:38:30;101776.17;;;34.09;23.25
58739;BME280;44512;53.046;18.604;2023-06-22T17:48:59;101764.84;;;33.62;23.75
58739;BME280;44512;53.046;18.604;2023-06-22T17:59:32;101743.21;;;33.20;24.34
58739;BME280;44512;53.046;18.604;2023-06-22T18:09:59;101727.63;;;32.79;25.02
58739;BME280;44512;53.046;18.604;2023-06-22T18:20:33;101713.02;;;32.42;25.66
58739;BME280;44512;53.046;18.604;2023-06-22T18:31:00;101702.66;;;32.11;26.85
58739;BME280;44512;53.046;18.604;2023-06-22T18:41:35;101707.66;;;31.92;27.24
58739;BME280;44512;53.046;18.604;2023-06-22T18:52:03;101704.40;;;31.99;27.93
58739;BME280;44512;53.046;18.604;2023-06-22T19:12:55;101720.29;;;32.12;27.97
58739;BME280;44512;53.046;18.604;2023-06-22T19:23:31;101728.49;;;32.08;28.20
58739;BME280;44512;53.046;18.604;2023-06-22T19:33:59;101718.73;;;31.97;28.49
58739;BME280;44512;53.046;18.604;2023-06-22T19:44:18;101692.66;;;31.88;28.68
58739;BME280;44512;53.046;18.604;2023-06-22T19:54:47;101676.51;;;31.62;29.03
58739;BME280;44512;53.046;18.604;2023-06-22T20:05:15;101664.58;;;31.26;29.48
58739;BME280;44512;53.046;18.604;2023-06-22T20:15:45;101661.29;;;30.88;30.26
58739;BME280;44512;53.046;18.604;2023-06-22T20:26:12;101653.05;;;30.55;30.68
58739;BME280;44512;53.046;18.604;2023-06-22T20:36:41;101649.45;;;30.27;31.24
58739;BME280;44512;53.046;18.604;2023-06-22T20:47:08;101662.15;;;30.05;31.85
58739;BME280;44512;53.046;18.604;2023-06-22T20:57:37;101659.43;;;29.87;32.37
58739;BME280;44512;53.046;18.604;2023-06-22T21:08:05;101636.67;;;29.66;32.46
58739;BME280;44512;53.046;18.604;2023-06-22T21:18:33;101627.16;;;29.34;32.88
58739;BME280;44512;53.046;18.604;2023-06-22T21:29:02;101647.53;;;28.78;33.65
58739;BME280;44512;53.046;18.604;2023-06-22T21:39:30;101664.36;;;28.25;34.91
58739;BME280;44512;53.046;18.604;2023-06-22T21:49:58;101668.09;;;27.91;35.63
58739;BME280;44512;53.046;18.604;2023-06-22T22:00:27;101662.54;;;27.57;36.12
58739;BME280;44512;53.046;18.604;2023-06-22T22:10:55;101644.74;;;27.24;36.74
58739;BME280;44512;53.046;18.604;2023-06-22T22:21:23;101638.85;;;26.91;37.34
58739;BME280;44512;53.046;18.604;2023-06-22T22:31:52;101641.53;;;26.67;38.06
58739;BME280;44512;53.046;18.604;2023-06-22T22:42:20;101627.48;;;26.43;38.64
58739;BME280;44512;53.046;18.604;2023-06-22T22:52:48;101618.68;;;26.21;38.90
58739;BME280;44512;53.046;18.604;2023-06-22T23:03:17;101602.13;;;25.95;39.38
58739;BME280;44512;53.046;18.604;2023-06-22T23:13:45;101589.16;;;25.76;39.78
58739;BME280;44512;53.046;18.604;2023-06-22T23:24:14;101569.47;;;25.57;40.14
58739;BME280;44512;53.046;18.604;2023-06-22T23:34:42;101580.59;;;25.36;40.65
58739;BME280;44512;53.046;18.604;2023-06-22T23:45:10;101577.57;;;25.17;40.81
58739;BME280;44512;53.046;18.604;2023-06-22T23:55:39;101589.70;;;24.96;40.82
